Time;durP1;ratioP1;P1;durP2;ratioP2;P2;SDS_P1;SDS_P2;PMS_P1;PMS_P2;Temp;Humidity;BMP_temperature;BMP_pressure;BME280_temperature;BME280_humidity;BME280_pressure;Samples;Min_cycle;Max_cycle;Signal;HPM_P1;HPM_P2
2023/07/17 00:01:40;;;;;;;2.33;2.13;;;;;;;;;;5055467;28;20025;-32
2023/07/17 00:04:06;;;;;;;1.77;1.70;;;;;;;;;;5054571;28;20040;-31
2023/07/17 00:06:33;;;;;;;2.15;2.05;;;;;;;;;;5055266;28;20166;-29
2023/07/17 00:08:59;;;;;;;2.38;2.28;;;;;;;;;;5054851;28;20031;-32
2023/07/17 00:11:25;;;;;;;1.98;1.85;;;;;;;;;;5054758;28;20028;-30
2023/07/17 00:13:51;;;;;;;2.67;2.47;;;;;;;;;;5054733;28;20021;-29
2023/07/17 00:16:19;;;;;;;2.47;2.28;;;;;;;;;;5054790;28;20359;-30
2023/07/17 00:18:45;;;;;;;2.30;2.10;;;;;;;;;;5055232;28;20017;-29
2023/07/17 00:21:11;;;;;;;2.30;2.20;;;;;;;;;;5054659;28;20025;-28
2023/07/17 00:23:38;;;;;;;2.40;2.30;;;;;;;;;;5054824;28;20021;-29
2023/07/17 00:26:04;;;;;;;2.13;2.03;;;;;;;;;;5054843;28;20021;-31
2023/07/17 00:28:30;;;;;;;2.10;2.00;;;;;;;;;;5054477;28;20025;-27
2023/07/17 00:30:56;;;;;;;2.13;2.03;;;;;;;;;;5054783;28;20131;-30
2023/07/17 00:33:22;;;;;;;2.22;2.13;;;;;;;;;;5054368;28;20029;-27
2023/07/17 00:35:48;;;;;;;1.90;1.80;;;;;;;;;;5054750;28;20036;-33
2023/07/17 00:38:15;;;;;;;2.22;2.10;;;;;;;;;;5054704;28;20186;-31
2023/07/17 00:40:41;;;;;;;2.50;2.30;;;;;;;;;;5054460;28;20131;-31
2023/07/17 00:43:11;;;;;;;2.03;1.92;;;;;;;;;;5054628;28;20027;-30
2023/07/17 00:45:38;;;;;;;2.60;2.40;;;;;;;;;;5054318;28;20025;-28
2023/07/17 00:48:04;;;;;;;1.77;1.67;;;;;;;;;;5054572;28;20033;-30
2023/07/17 00:50:31;;;;;;;2.33;2.22;;;;;;;;;;5054581;28;20025;-32
2023/07/17 00:52:57;;;;;;;1.92;1.83;;;;;;;;;;5054483;28;20113;-30
2023/07/17 00:55:23;;;;;;;2.10;2.00;;;;;;;;;;5055156;28;20360;-31
2023/07/17 00:57:50;;;;;;;1.92;1.83;;;;;;;;;;5058339;28;20025;-29
2023/07/17 01:00:17;;;;;;;2.00;1.90;;;;;;;;;;5058347;28;20021;-29
2023/07/17 01:02:44;;;;;;;2.00;1.90;;;;;;;;;;5058716;28;20040;-32
2023/07/17 01:05:11;;;;;;;2.47;1.67;;;;;;;;;;5058345;28;20045;-27
2023/07/17 01:07:39;;;;;;;1.90;1.80;;;;;;;;;;5058401;28;20036;-30
2023/07/17 01:10:05;;;;;;;2.42;2.33;;;;;;;;;;5058114;28;20028;-32
2023/07/17 01:12:35;;;;;;;1.90;1.80;;;;;;;;;;5058213;28;20029;-30
2023/07/17 01:15:01;;;;;;;2.17;2.08;;;;;;;;;;5058085;28;20469;-32
2023/07/17 01:17:27;;;;;;;2.00;1.90;;;;;;;;;;5058294;28;20054;-28
2023/07/17 01:19:53;;;;;;;2.22;2.10;;;;;;;;;;5057958;28;20028;-31
2023/07/17 01:22:23;;;;;;;2.55;2.35;;;;;;;;;;5058086;28;20025;-30
2023/07/17 01:24:50;;;;;;;1.88;1.77;;;;;;;;;;5057956;28;20114;-29
2023/07/17 01:27:17;;;;;;;2.10;2.00;;;;;;;;;;5057794;28;20021;-28
2023/07/17 01:29:43;;;;;;;2.45;2.25;;;;;;;;;;5058381;28;20049;-29
2023/07/17 01:32:09;;;;;;;2.10;2.00;;;;;;;;;;5057717;28;20021;-31
2023/07/17 01:34:35;;;;;;;2.15;2.03;;;;;;;;;;5040142;28;20029;-30
2023/07/17 01:37:02;;;;;;;3.28;2.00;;;;;;;;;;5057638;28;20111;-28
2023/07/17 01:39:28;;;;;;;1.90;1.80;;;;;;;;;;5057896;28;20071;-30
2023/07/17 01:41:54;;;;;;;2.42;2.33;;;;;;;;;;5057726;28;20128;-28
2023/07/17 01:44:21;;;;;;;1.83;1.73;;;;;;;;;;5057529;28;20055;-29
2023/07/17 01:46:47;;;;;;;1.85;1.75;;;;;;;;;;5057433;28;20037;-29
2023/07/17 01:49:13;;;;;;;1.90;1.80;;;;;;;;;;5057437;28;20029;-31
2023/07/17 01:51:39;;;;;;;2.00;1.90;;;;;;;;;;5057714;28;20036;-30
2023/07/17 01:54:06;;;;;;;2.00;1.90;;;;;;;;;;5057241;28;20059;-32
2023/07/17 01:56:32;;;;;;;2.15;2.05;;;;;;;;;;5057591;28;20432;-30
2023/07/17 01:58:58;;;;;;;1.63;1.52;;;;;;;;;;5057467;28;20021;-31
2023/07/17 02:01:24;;;;;;;2.13;2.03;;;;;;;;;;5039647;28;20071;-29
2023/07/17 02:03:50;;;;;;;2.20;2.10;;;;;;;;;;5056784;28;20056;-31
2023/07/17 02:06:17;;;;;;;1.98;1.88;;;;;;;;;;5057647;28;20036;-32
2023/07/17 02:08:43;;;;;;;2.10;2.00;;;;;;;;;;5057264;28;20104;-30
2023/07/17 02:11:09;;;;;;;2.30;2.20;;;;;;;;;;5057348;28;20099;-32
2023/07/17 02:13:35;;;;;;;1.77;1.67;;;;;;;;;;5057028;28;20432;-37
2023/07/17 02:16:01;;;;;;;2.30;2.10;;;;;;;;;;5057175;28;20440;-28
2023/07/17 02:18:30;;;;;;;2.08;1.98;;;;;;;;;;5056852;28;20079;-31
2023/07/17 02:20:56;;;;;;;1.92;1.83;;;;;;;;;;5056750;28;20107;-30
2023/07/17 02:23:22;;;;;;;1.80;1.70;;;;;;;;;;5056722;28;20458;-32
2023/07/17 02:25:48;;;;;;;2.28;2.17;;;;;;;;;;5056998;28;20028;-27
2023/07/17 02:28:15;;;;;;;2.05;1.95;;;;;;;;;;5056648;28;20025;-27
2023/07/17 02:30:42;;;;;;;2.25;2.05;;;;;;;;;;5056651;28;20021;-27
2023/07/17 02:33:08;;;;;;;2.15;2.05;;;;;;;;;;5056531;28;20029;-31
2023/07/17 02:35:34;;;;;;;2.30;2.20;;;;;;;;;;5056907;28;20029;-29
2023/07/17 02:38:00;;;;;;;1.92;1.83;;;;;;;;;;5056802;28;20416;-29
2023/07/17 02:40:26;;;;;;;2.63;2.42;;;;;;;;;;5056773;28;20032;-31
2023/07/17 02:42:52;;;;;;;2.30;2.20;;;;;;;;;;5056603;28;20275;-31
2023/07/17 02:45:18;;;;;;;1.95;1.85;;;;;;;;;;5056402;28;20522;-31
2023/07/17 02:47:44;;;;;;;2.38;2.25;;;;;;;;;;5056297;28;20043;-28
2023/07/17 02:50:11;;;;;;;2.00;1.90;;;;;;;;;;5056278;28;20028;-31
2023/07/17 02:52:37;;;;;;;2.05;1.95;;;;;;;;;;5056494;28;20341;-26
2023/07/17 02:55:04;;;;;;;1.85;1.75;;;;;;;;;;5056437;28;20025;-32
2023/07/17 02:57:33;;;;;;;1.98;1.88;;;;;;;;;;5056447;28;20024;-29
2023/07/17 03:00:00;;;;;;;2.00;1.90;;;;;;;;;;5056370;28;20025;-34
2023/07/17 03:02:26;;;;;;;2.55;2.40;;;;;;;;;;5055955;28;20029;-30
2023/07/17 03:04:52;;;;;;;2.03;1.92;;;;;;;;;;5055811;28;20127;-26
2023/07/17 03:07:18;;;;;;;2.42;2.22;;;;;;;;;;5055903;28;20092;-32
2023/07/17 03:09:44;;;;;;;1.88;1.77;;;;;;;;;;5056139;28;20085;-29
2023/07/17 03:12:10;;;;;;;2.00;1.90;;;;;;;;;;5055748;28;20025;-29
2023/07/17 03:14:37;;;;;;;2.15;2.05;;;;;;;;;;5056043;28;20017;-29
2023/07/17 03:17:03;;;;;;;1.95;1.85;;;;;;;;;;5056296;28;20029;-29
2023/07/17 03:19:29;;;;;;;1.70;1.60;;;;;;;;;;5055376;28;20051;-30
2023/07/17 03:21:55;;;;;;;2.17;2.05;;;;;;;;;;5055845;28;20025;-30
2023/07/17 03:24:21;;;;;;;2.03;1.90;;;;;;;;;;5055860;28;20375;-30
2023/07/17 03:26:47;;;;;;;2.00;1.90;;;;;;;;;;5055487;28;20025;-28
2023/07/17 03:29:13;;;;;;;1.70;1.60;;;;;;;;;;5055763;28;20037;-30
2023/07/17 03:31:39;;;;;;;1.90;1.80;;;;;;;;;;5056014;28;20021;-30
2023/07/17 03:34:05;;;;;;;2.17;2.08;;;;;;;;;;5055358;28;20454;-29
2023/07/17 03:36:32;;;;;;;1.77;1.67;;;;;;;;;;5055429;28;20364;-29
2023/07/17 03:38:58;;;;;;;2.15;2.05;;;;;;;;;;5055369;28;20064;-31
2023/07/17 03:41:24;;;;;;;1.75;1.65;;;;;;;;;;5055240;28;20447;-30
2023/07/17 03:43:50;;;;;;;1.98;1.88;;;;;;;;;;5055378;28;20052;-30
2023/07/17 03:46:16;;;;;;;1.90;1.80;;;;;;;;;;5055766;28;20456;-31
2023/07/17 03:48:42;;;;;;;1.80;1.70;;;;;;;;;;5055605;28;20094;-30
2023/07/17 03:51:08;;;;;;;2.03;1.90;;;;;;;;;;5055120;28;20036;-29
2023/07/17 03:53:35;;;;;;;2.08;1.98;;;;;;;;;;5054974;28;20081;-29
2023/07/17 03:56:01;;;;;;;2.33;2.22;;;;;;;;;;5055265;28;20021;-30
2023/07/17 03:58:27;;;;;;;1.95;1.85;;;;;;;;;;5054965;28;20025;-30
2023/07/17 04:00:53;;;;;;;2.30;2.10;;;;;;;;;;5054817;28;20043;-29
2023/07/17 04:03:20;;;;;;;2.22;2.13;;;;;;;;;;5054774;28;20043;-30
2023/07/17 04:05:47;;;;;;;1.85;1.75;;;;;;;;;;5055628;28;20048;-31
2023/07/17 04:08:13;;;;;;;2.03;1.92;;;;;;;;;;5054502;28;20158;-29
2023/07/17 04:10:40;;;;;;;1.73;1.63;;;;;;;;;;5055151;28;20017;-30
2023/07/17 04:13:06;;;;;;;1.65;1.55;;;;;;;;;;5037469;28;20040;-30
2023/07/17 04:15:32;;;;;;;1.67;1.58;;;;;;;;;;5054293;28;20508;-28
2023/07/17 04:17:58;;;;;;;1.98;1.88;;;;;;;;;;5037018;28;20368;-31
2023/07/17 04:20:25;;;;;;;1.95;1.85;;;;;;;;;;5054710;28;20351;-30
2023/07/17 04:22:51;;;;;;;1.42;1.40;;;;;;;;;;5054338;28;20029;-30
2023/07/17 04:25:17;;;;;;;2.67;2.03;;;;;;;;;;5054457;28;20036;-30
2023/07/17 04:27:43;;;;;;;1.90;1.80;;;;;;;;;;5036667;28;20460;-28
2023/07/17 04:30:10;;;;;;;3.50;2.03;;;;;;;;;;5054668;28;20364;-32
2023/07/17 04:32:36;;;;;;;2.30;2.10;;;;;;;;;;5054158;28;20029;-27
2023/07/17 04:35:02;;;;;;;4.32;2.20;;;;;;;;;;5054242;28;20021;-28
2023/07/17 04:37:28;;;;;;;2.75;1.85;;;;;;;;;;5054552;28;20110;-29
2023/07/17 04:39:54;;;;;;;2.35;1.88;;;;;;;;;;5054282;28;20032;-28
2023/07/17 04:42:20;;;;;;;3.28;2.10;;;;;;;;;;5054482;28;20033;-31
2023/07/17 04:44:46;;;;;;;2.45;1.83;;;;;;;;;;5054470;28;20108;-30
2023/07/17 04:47:13;;;;;;;5.13;2.20;;;;;;;;;;5054397;28;20032;-27
2023/07/17 04:49:39;;;;;;;2.45;1.90;;;;;;;;;;5054210;28;20040;-30
2023/07/17 04:52:05;;;;;;;2.28;2.10;;;;;;;;;;5053961;28;20070;-28
2023/07/17 04:54:31;;;;;;;3.53;1.95;;;;;;;;;;5054232;28;20449;-31
2023/07/17 04:56:57;;;;;;;2.95;2.30;;;;;;;;;;5053966;28;20041;-27
2023/07/17 04:59:23;;;;;;;5.70;2.42;;;;;;;;;;5054297;28;20021;-30
2023/07/17 05:01:51;;;;;;;2.63;2.38;;;;;;;;;;5054051;28;20040;-30
2023/07/17 05:04:18;;;;;;;6.70;2.15;;;;;;;;;;5053841;28;20041;-27
2023/07/17 05:06:44;;;;;;;3.38;1.88;;;;;;;;;;5054176;28;20116;-28
2023/07/17 05:09:10;;;;;;;1.83;1.60;;;;;;;;;;5054154;28;20021;-28
2023/07/17 05:11:36;;;;;;;6.18;2.00;;;;;;;;;;5054365;28;20360;-32
2023/07/17 05:14:02;;;;;;;2.35;2.15;;;;;;;;;;5020072;28;20063;-29
2023/07/17 05:16:28;;;;;;;3.90;3.00;;;;;;;;;;5054566;28;20047;-30
2023/07/17 05:18:54;;;;;;;5.43;2.45;;;;;;;;;;5054229;28;20033;-30
2023/07/17 05:21:21;;;;;;;3.88;2.03;;;;;;;;;;5054128;28;20108;-29
2023/07/17 05:23:47;;;;;;;6.97;2.00;;;;;;;;;;5036374;28;20028;-31
2023/07/17 05:26:13;;;;;;;3.47;2.30;;;;;;;;;;5053885;28;20421;-31
2023/07/17 05:28:40;;;;;;;4.68;2.25;;;;;;;;;;5053922;28;20081;-29
2023/07/17 05:31:06;;;;;;;2.45;2.25;;;;;;;;;;5053703;28;20486;-28
2023/07/17 05:33:32;;;;;;;2.67;2.00;;;;;;;;;;5053903;28;20107;-28
2023/07/17 05:35:58;;;;;;;2.97;2.03;;;;;;;;;;5053889;28;20028;-30
2023/07/17 05:38:24;;;;;;;3.53;2.13;;;;;;;;;;5053820;28;20028;-27
2023/07/17 05:40:58;;;;;;;2.47;2.28;;;;;;;;;;5053662;28;20033;-29
2023/07/17 05:43:24;;;;;;;2.35;2.15;;;;;;;;;;5057237;28;20115;-29
2023/07/17 05:45:50;;;;;;;5.15;2.35;;;;;;;;;;5057476;28;20085;-28
2023/07/17 05:48:16;;;;;;;4.88;2.10;;;;;;;;;;5057350;28;20060;-28
2023/07/17 05:50:43;;;;;;;3.42;2.30;;;;;;;;;;5057264;28;20494;-30
2023/07/17 05:53:09;;;;;;;4.88;2.35;;;;;;;;;;5039546;28;20049;-39
2023/07/17 05:55:35;;;;;;;5.15;2.10;;;;;;;;;;5057247;28;20025;-31
2023/07/17 05:58:02;;;;;;;5.65;2.65;;;;;;;;;;5057134;28;20035;-31
2023/07/17 06:03:19;;;;;;;4.30;2.92;;;;;;;;;;5387560;22;20060;-30
2023/07/17 06:05:46;;;;;;;5.03;2.40;;;;;;;;;;5059482;28;20348;-30
2023/07/17 06:08:12;;;;;;;4.40;2.17;;;;;;;;;;5077235;28;20058;-30
2023/07/17 06:10:38;;;;;;;2.28;2.08;;;;;;;;;;5077173;28;20137;-29
2023/07/17 06:13:04;;;;;;;2.95;2.10;;;;;;;;;;5077004;28;20017;-30
2023/07/17 06:15:30;;;;;;;3.45;2.45;;;;;;;;;;5077137;28;20082;-31
2023/07/17 06:17:57;;;;;;;4.95;2.50;;;;;;;;;;5076868;28;20036;-31
2023/07/17 06:20:23;;;;;;;5.72;2.33;;;;;;;;;;5076944;28;20020;-27
2023/07/17 06:22:49;;;;;;;4.95;2.80;;;;;;;;;;5059137;28;20040;-31
2023/07/17 06:25:15;;;;;;;3.88;2.80;;;;;;;;;;5077051;28;20113;-31
2023/07/17 06:27:41;;;;;;;4.50;2.40;;;;;;;;;;5076703;28;20024;-27
2023/07/17 06:30:08;;;;;;;4.88;2.40;;;;;;;;;;5076984;28;20012;-28
2023/07/17 06:32:34;;;;;;;3.33;2.30;;;;;;;;;;5076583;28;20389;-30
2023/07/17 06:35:01;;;;;;;10.02;2.88;;;;;;;;;;5076990;28;20021;-27
2023/07/17 06:37:27;;;;;;;7.22;2.60;;;;;;;;;;5076488;28;20028;-30
2023/07/17 06:39:53;;;;;;;5.47;2.53;;;;;;;;;;5076778;28;20078;-30
2023/07/17 06:42:19;;;;;;;4.90;2.22;;;;;;;;;;5058581;28;20024;-28
2023/07/17 06:44:45;;;;;;;3.45;2.50;;;;;;;;;;5076414;28;20526;-30
2023/07/17 06:47:11;;;;;;;9.43;3.45;;;;;;;;;;5058584;28;20082;-27
2023/07/17 06:49:38;;;;;;;6.30;3.35;;;;;;;;;;5076711;28;20343;-29
2023/07/17 06:52:04;;;;;;;7.80;3.35;;;;;;;;;;5076023;28;20025;-28
2023/07/17 06:54:30;;;;;;;6.40;3.05;;;;;;;;;;5075361;28;20056;-27
2023/07/17 06:56:56;;;;;;;8.77;3.08;;;;;;;;;;5076275;28;20025;-29
2023/07/17 06:59:25;;;;;;;11.35;3.88;;;;;;;;;;5076320;28;20016;-32
2023/07/17 07:01:54;;;;;;;8.52;3.22;;;;;;;;;;5075726;28;20040;-29
2023/07/17 07:04:20;;;;;;;7.13;3.67;;;;;;;;;;5054632;28;20107;-29
2023/07/17 07:06:46;;;;;;;4.97;2.40;;;;;;;;;;5055690;28;20024;-30
2023/07/17 07:09:12;;;;;;;6.70;2.88;;;;;;;;;;5054789;28;20455;-31
2023/07/17 07:11:38;;;;;;;4.90;2.40;;;;;;;;;;5055586;28;20086;-28
2023/07/17 07:14:05;;;;;;;7.55;2.63;;;;;;;;;;5054888;28;20032;-33
2023/07/17 07:16:31;;;;;;;10.55;3.63;;;;;;;;;;5055697;28;20035;-30
2023/07/17 07:18:57;;;;;;;4.95;2.60;;;;;;;;;;5055417;28;20083;-31
2023/07/17 07:21:23;;;;;;;9.10;3.30;;;;;;;;;;5055754;28;20104;-30
2023/07/17 07:23:49;;;;;;;10.10;3.00;;;;;;;;;;5055476;28;20033;-32
2023/07/17 07:26:16;;;;;;;7.63;3.40;;;;;;;;;;5055373;28;20079;-29
2023/07/17 07:28:42;;;;;;;5.68;2.95;;;;;;;;;;5075532;28;20029;-31
2023/07/17 07:31:08;;;;;;;6.10;2.60;;;;;;;;;;5075406;28;20081;-29
2023/07/17 07:33:36;;;;;;;6.63;2.95;;;;;;;;;;5074770;28;20020;-28
2023/07/17 07:36:02;;;;;;;7.65;3.38;;;;;;;;;;5075031;28;20107;-29
2023/07/17 07:38:29;;;;;;;7.25;3.20;;;;;;;;;;5074979;28;20047;-29
2023/07/17 07:40:55;;;;;;;10.77;3.20;;;;;;;;;;5075024;28;20017;-31
2023/07/17 07:43:21;;;;;;;15.00;3.20;;;;;;;;;;5074988;28;20040;-26
2023/07/17 07:45:47;;;;;;;5.38;3.08;;;;;;;;;;5075037;28;20029;-31
2023/07/17 07:48:13;;;;;;;9.60;3.03;;;;;;;;;;5074930;28;20393;-32
2023/07/17 07:50:39;;;;;;;9.15;3.75;;;;;;;;;;5075013;28;20458;-31
2023/07/17 07:53:05;;;;;;;8.25;4.00;;;;;;;;;;5074744;28;20024;-27
2023/07/17 07:55:32;;;;;;;10.98;3.88;;;;;;;;;;5075151;28;20047;-26
2023/07/17 07:57:58;;;;;;;17.85;3.67;;;;;;;;;;5074939;28;20024;-30
2023/07/17 08:00:24;;;;;;;10.50;3.88;;;;;;;;;;5074835;28;20064;-27
2023/07/17 08:02:53;;;;;;;7.63;3.10;;;;;;;;;;5074623;28;20417;-28
2023/07/17 08:05:20;;;;;;;9.85;3.38;;;;;;;;;;5074825;28;20415;-31
2023/07/17 08:07:46;;;;;;;11.90;3.80;;;;;;;;;;5074764;28;20036;-30
2023/07/17 08:10:12;;;;;;;17.88;3.97;;;;;;;;;;5074712;28;20536;-32
2023/07/17 08:12:38;;;;;;;9.18;3.17;;;;;;;;;;5074723;28;20131;-31
2023/07/17 08:15:07;;;;;;;6.72;3.50;;;;;;;;;;5075101;28;20024;-31
2023/07/17 08:17:33;;;;;;;6.65;3.58;;;;;;;;;;5074929;28;20060;-27
2023/07/17 08:20:00;;;;;;;7.95;3.38;;;;;;;;;;5074659;28;20028;-32
2023/07/17 08:22:26;;;;;;;7.85;3.15;;;;;;;;;;5075138;28;20043;-27
2023/07/17 08:24:52;;;;;;;11.60;2.67;;;;;;;;;;5074555;28;20032;-31
2023/07/17 08:27:18;;;;;;;10.75;3.85;;;;;;;;;;5074700;28;20024;-28
2023/07/17 08:29:44;;;;;;;11.35;2.95;;;;;;;;;;5074716;28;20024;-30
2023/07/17 08:32:11;;;;;;;11.43;3.67;;;;;;;;;;5074584;28;20021;-32
2023/07/17 08:34:37;;;;;;;11.95;4.03;;;;;;;;;;5074752;28;20394;-30
2023/07/17 08:37:03;;;;;;;10.90;3.97;;;;;;;;;;5056594;28;20024;-37
2023/07/17 08:39:29;;;;;;;6.32;3.05;;;;;;;;;;5074589;28;20025;-28
2023/07/17 08:41:55;;;;;;;9.48;2.67;;;;;;;;;;5074780;28;20028;-29
2023/07/17 08:44:22;;;;;;;9.80;3.50;;;;;;;;;;5074259;28;20504;-33
2023/07/17 08:46:50;;;;;;;12.07;4.45;;;;;;;;;;5074546;28;20143;-32
2023/07/17 08:49:17;;;;;;;5.97;3.47;;;;;;;;;;5074416;28;20162;-31
2023/07/17 08:51:43;;;;;;;8.68;3.75;;;;;;;;;;5074469;28;20042;-31
2023/07/17 08:54:12;;;;;;;14.63;5.25;;;;;;;;;;5074305;28;20344;-31
2023/07/17 08:56:39;;;;;;;7.15;3.60;;;;;;;;;;5074155;28;20056;-31
2023/07/17 08:59:06;;;;;;;14.35;4.22;;;;;;;;;;5056411;28;20110;-30
2023/07/17 09:01:32;;;;;;;8.13;3.97;;;;;;;;;;5074021;28;20038;-30
2023/07/17 09:03:58;;;;;;;8.52;3.40;;;;;;;;;;5073842;28;20401;-31
2023/07/17 09:06:27;;;;;;;8.48;3.78;;;;;;;;;;5074114;28;20032;-28
2023/07/17 09:08:53;;;;;;;9.95;3.40;;;;;;;;;;5074519;28;20020;-29
2023/07/17 09:11:20;;;;;;;8.38;4.30;;;;;;;;;;5074044;28;20429;-31
2023/07/17 09:13:47;;;;;;;8.95;2.92;;;;;;;;;;5074280;28;20039;-32
2023/07/17 09:16:17;;;;;;;10.95;3.42;;;;;;;;;;5074663;28;20051;-30
2023/07/17 09:18:43;;;;;;;11.13;4.15;;;;;;;;;;5078232;28;20024;-29
2023/07/17 09:21:17;;;;;;;11.35;4.00;;;;;;;;;;5077840;28;20474;-32
2023/07/17 09:23:47;;;;;;;13.48;3.05;;;;;;;;;;5077904;28;20036;-33
2023/07/17 09:26:14;;;;;;;11.40;4.07;;;;;;;;;;5060141;28;20031;-29
2023/07/17 09:28:50;;;;;;;10.18;3.88;;;;;;;;;;5077680;28;20275;-31
2023/07/17 09:31:36;;;;;;;10.82;4.18;;;;;;;;;;5078000;28;20028;-31
2023/07/17 09:34:04;;;;;;;12.82;4.00;;;;;;;;;;5077568;28;20086;-30
2023/07/17 09:36:30;;;;;;;5.25;4.07;;;;;;;;;;5060147;28;20359;-28
2023/07/17 09:38:57;;;;;;;15.07;3.95;;;;;;;;;;5077792;28;20033;-30
2023/07/17 09:41:25;;;;;;;9.15;3.10;;;;;;;;;;5077760;28;20436;-27
2023/07/17 09:43:55;;;;;;;6.40;3.75;;;;;;;;;;5077324;28;20107;-28
2023/07/17 09:46:21;;;;;;;6.95;3.20;;;;;;;;;;5077430;28;20044;-31
2023/07/17 09:48:48;;;;;;;8.27;4.00;;;;;;;;;;5077360;28;20028;-31
2023/07/17 09:51:14;;;;;;;9.45;3.45;;;;;;;;;;5077308;28;20021;-31
2023/07/17 09:53:41;;;;;;;8.05;4.75;;;;;;;;;;5076979;28;20090;-33
2023/07/17 09:56:09;;;;;;;12.30;3.63;;;;;;;;;;5076946;28;20031;-31
2023/07/17 09:58:35;;;;;;;14.05;3.90;;;;;;;;;;5077357;28;20028;-31
2023/07/17 10:01:03;;;;;;;10.38;3.75;;;;;;;;;;5076930;28;20025;-30
2023/07/17 10:03:31;;;;;;;13.27;4.03;;;;;;;;;;5076771;28;20084;-27
2023/07/17 10:05:58;;;;;;;11.48;3.88;;;;;;;;;;5077044;28;20033;-33
2023/07/17 10:08:24;;;;;;;15.93;5.93;;;;;;;;;;5077070;28;20032;-31
2023/07/17 10:10:50;;;;;;;19.02;4.78;;;;;;;;;;5077219;28;20025;-29
2023/07/17 10:13:16;;;;;;;12.93;4.05;;;;;;;;;;5076792;28;20020;-30
2023/07/17 10:15:43;;;;;;;7.50;4.20;;;;;;;;;;5077000;28;20025;-29
2023/07/17 10:18:12;;;;;;;9.20;3.85;;;;;;;;;;5059183;28;20466;-30
2023/07/17 10:20:38;;;;;;;12.93;4.15;;;;;;;;;;5077038;28;20351;-30
2023/07/17 10:23:06;;;;;;;6.38;3.53;;;;;;;;;;5076739;28;20096;-30
2023/07/17 10:25:32;;;;;;;11.35;4.05;;;;;;;;;;5076467;28;20025;-31
2023/07/17 10:28:02;;;;;;;13.00;3.83;;;;;;;;;;5076470;28;20048;-29
2023/07/17 10:30:28;;;;;;;13.88;3.70;;;;;;;;;;5076563;28;20378;-30
2023/07/17 10:33:07;;;;;;;8.40;3.45;;;;;;;;;;5076212;28;20304;-31
2023/07/17 10:36:00;;;;;;;8.50;3.67;;;;;;;;;;5076597;28;20074;-28
2023/07/17 10:38:27;;;;;;;8.82;4.07;;;;;;;;;;5074165;28;20100;-30
2023/07/17 10:41:11;;;;;;;10.13;4.15;;;;;;;;;;5076286;28;20034;-27
2023/07/17 10:43:37;;;;;;;12.02;3.53;;;;;;;;;;5076365;28;20122;-30
2023/07/17 10:46:10;;;;;;;5.45;3.30;;;;;;;;;;5075969;28;20031;-31
2023/07/17 10:48:37;;;;;;;12.55;3.53;;;;;;;;;;5076089;28;20089;-28
2023/07/17 10:51:03;;;;;;;11.30;3.40;;;;;;;;;;5075817;28;20097;-30
2023/07/17 10:53:29;;;;;;;7.13;3.53;;;;;;;;;;5075953;28;20096;-31
2023/07/17 10:55:56;;;;;;;6.85;4.10;;;;;;;;;;5075893;28;20096;-28
2023/07/17 10:58:23;;;;;;;3.90;3.20;;;;;;;;;;5076329;28;20028;-33
2023/07/17 11:00:49;;;;;;;10.57;3.90;;;;;;;;;;5076658;28;20358;-28
2023/07/17 11:03:16;;;;;;;15.55;4.15;;;;;;;;;;5075880;28;20075;-31
2023/07/17 11:05:44;;;;;;;8.15;3.25;;;;;;;;;;5076141;28;20112;-31
2023/07/17 11:08:12;;;;;;;14.60;3.50;;;;;;;;;;5076100;28;20082;-26
2023/07/17 11:10:40;;;;;;;11.60;3.42;;;;;;;;;;5075792;28;20028;-29
2023/07/17 11:13:07;;;;;;;6.60;3.25;;;;;;;;;;5075713;28;20048;-29
2023/07/17 11:15:33;;;;;;;8.75;3.85;;;;;;;;;;5075997;28;20411;-29
2023/07/17 11:18:00;;;;;;;6.97;3.72;;;;;;;;;;5058007;28;20028;-28
2023/07/17 11:20:27;;;;;;;5.78;2.92;;;;;;;;;;5075655;28;20040;-30
2023/07/17 11:22:53;;;;;;;9.50;3.63;;;;;;;;;;5075975;28;20520;-33
2023/07/17 11:25:20;;;;;;;5.93;3.22;;;;;;;;;;5075521;28;20423;-31
2023/07/17 11:27:46;;;;;;;10.70;3.83;;;;;;;;;;5075325;28;20100;-30
2023/07/17 11:30:24;;;;;;;7.43;3.88;;;;;;;;;;5075319;28;20021;-31
2023/07/17 11:32:55;;;;;;;8.68;3.92;;;;;;;;;;5075515;28;20337;-29
2023/07/17 11:35:22;;;;;;;8.50;3.42;;;;;;;;;;5075467;28;20045;-29
2023/07/17 11:37:48;;;;;;;9.25;3.28;;;;;;;;;;5075332;28;20095;-31
2023/07/17 11:40:14;;;;;;;7.50;3.53;;;;;;;;;;5074780;28;20036;-26
2023/07/17 11:42:56;;;;;;;5.35;3.08;;;;;;;;;;5075261;28;20028;-31
2023/07/17 11:45:26;;;;;;;11.27;3.65;;;;;;;;;;5075194;28;20161;-29
2023/07/17 11:47:57;;;;;;;8.70;3.95;;;;;;;;;;5075285;28;20063;-31
2023/07/17 11:50:27;;;;;;;7.43;3.78;;;;;;;;;;5075197;28;20058;-29
2023/07/17 11:53:11;;;;;;;7.80;4.10;;;;;;;;;;5074866;28;20052;-28
2023/07/17 11:55:38;;;;;;;10.45;4.53;;;;;;;;;;5057068;28;20029;-32
2023/07/17 11:58:17;;;;;;;9.65;5.50;;;;;;;;;;5074822;28;20366;-30
2023/07/17 12:00:43;;;;;;;15.40;4.05;;;;;;;;;;5074632;28;20033;-27
2023/07/17 12:03:10;;;;;;;4.60;3.88;;;;;;;;;;5074606;28;20123;-29
2023/07/17 12:05:36;;;;;;;9.10;3.42;;;;;;;;;;5074892;28;20029;-27
2023/07/17 12:08:03;;;;;;;5.10;3.17;;;;;;;;;;5074580;28;20028;-30
2023/07/17 12:10:29;;;;;;;12.55;4.32;;;;;;;;;;5074898;28;20025;-30
2023/07/17 12:12:55;;;;;;;9.00;4.10;;;;;;;;;;5074766;28;20111;-31
2023/07/17 12:15:22;;;;;;;10.70;4.13;;;;;;;;;;5074587;28;20086;-30
2023/07/17 12:17:49;;;;;;;6.63;3.53;;;;;;;;;;5074537;28;20036;-29
2023/07/17 12:20:15;;;;;;;7.60;4.07;;;;;;;;;;5074509;28;20054;-30
2023/07/17 12:22:45;;;;;;;8.40;3.80;;;;;;;;;;5074441;28;20039;-29
2023/07/17 12:25:11;;;;;;;5.63;4.22;;;;;;;;;;5074674;28;20020;-31
2023/07/17 12:27:38;;;;;;;12.05;4.13;;;;;;;;;;5074388;28;20024;-30
2023/07/17 12:30:04;;;;;;;6.15;3.85;;;;;;;;;;5074597;28;20121;-28
2023/07/17 12:32:30;;;;;;;17.70;4.65;;;;;;;;;;5074581;28;20021;-30
2023/07/17 12:34:56;;;;;;;13.90;4.40;;;;;;;;;;5074318;28;20016;-29
2023/07/17 12:37:22;;;;;;;19.25;5.13;;;;;;;;;;5074577;28;20082;-27
2023/07/17 12:39:48;;;;;;;12.70;4.38;;;;;;;;;;5074389;28;20177;-32
2023/07/17 12:42:15;;;;;;;10.90;3.72;;;;;;;;;;5074236;28;20028;-30
2023/07/17 12:44:41;;;;;;;10.82;3.85;;;;;;;;;;5074261;28;20052;-32
2023/07/17 12:47:07;;;;;;;15.02;4.00;;;;;;;;;;5074490;28;20025;-29
2023/07/17 12:49:33;;;;;;;19.25;3.78;;;;;;;;;;5074406;28;20027;-29
2023/07/17 12:52:00;;;;;;;10.93;3.67;;;;;;;;;;5076190;28;20052;-31
2023/07/17 12:54:27;;;;;;;17.92;4.13;;;;;;;;;;5078248;28;20020;-28
2023/07/17 12:56:53;;;;;;;9.93;3.78;;;;;;;;;;5079063;28;20025;-32
2023/07/17 12:59:19;;;;;;;12.13;3.70;;;;;;;;;;5078458;28;20028;-30
2023/07/17 13:01:46;;;;;;;10.50;3.97;;;;;;;;;;5078190;28;20025;-32
2023/07/17 13:04:13;;;;;;;7.53;4.57;;;;;;;;;;5078070;28;20048;-32
2023/07/17 13:06:39;;;;;;;7.20;3.83;;;;;;;;;;5078172;28;20032;-30
2023/07/17 13:09:07;;;;;;;12.52;4.30;;;;;;;;;;5078257;28;20056;-32
2023/07/17 13:11:33;;;;;;;10.48;4.43;;;;;;;;;;5078345;28;20356;-27
2023/07/17 13:14:00;;;;;;;6.93;4.10;;;;;;;;;;5077939;28;20470;-32
2023/07/17 13:16:26;;;;;;;7.90;3.80;;;;;;;;;;5078028;28;20109;-30
2023/07/17 13:18:53;;;;;;;12.57;4.22;;;;;;;;;;5078231;28;20390;-27
2023/07/17 13:21:19;;;;;;;9.70;3.83;;;;;;;;;;5077811;28;20032;-31
2023/07/17 13:23:45;;;;;;;14.93;3.92;;;;;;;;;;5077765;28;20088;-29
2023/07/17 13:26:12;;;;;;;7.38;3.42;;;;;;;;;;5078343;28;20436;-30
2023/07/17 13:28:39;;;;;;;16.23;4.53;;;;;;;;;;5077630;28;20033;-27
2023/07/17 13:31:05;;;;;;;10.07;4.18;;;;;;;;;;5077729;28;20078;-28
2023/07/17 13:33:31;;;;;;;9.93;4.55;;;;;;;;;;5077956;28;20047;-28
2023/07/17 13:35:58;;;;;;;9.75;3.55;;;;;;;;;;5078170;28;20016;-28
2023/07/17 13:38:24;;;;;;;8.82;3.65;;;;;;;;;;5077843;28;20362;-30
2023/07/17 13:40:51;;;;;;;9.43;4.20;;;;;;;;;;5077446;28;20032;-27
2023/07/17 13:43:17;;;;;;;16.30;4.10;;;;;;;;;;5077480;28;20057;-31
2023/07/17 13:45:44;;;;;;;12.48;3.80;;;;;;;;;;5077613;28;20048;-32
2023/07/17 13:48:10;;;;;;;13.18;4.30;;;;;;;;;;5077333;28;20025;-31
2023/07/17 13:50:36;;;;;;;10.65;4.80;;;;;;;;;;5077930;28;20439;-27
2023/07/17 13:53:02;;;;;;;12.63;5.00;;;;;;;;;;5077275;28;20123;-31
2023/07/17 13:55:28;;;;;;;6.95;4.22;;;;;;;;;;5077422;28;20043;-30
2023/07/17 13:57:55;;;;;;;8.65;3.83;;;;;;;;;;5077412;28;20043;-29
2023/07/17 14:00:21;;;;;;;13.27;4.72;;;;;;;;;;5077551;28;20039;-30
2023/07/17 14:02:48;;;;;;;15.85;4.90;;;;;;;;;;5058832;28;20024;-32
2023/07/17 14:05:14;;;;;;;11.63;4.32;;;;;;;;;;5077047;28;20055;-32
2023/07/17 14:07:40;;;;;;;16.25;4.38;;;;;;;;;;5077216;28;20469;-30
2023/07/17 14:10:07;;;;;;;13.23;4.70;;;;;;;;;;5077675;28;20108;-31
2023/07/17 14:12:33;;;;;;;11.68;4.88;;;;;;;;;;5059563;28;20040;-28
2023/07/17 14:15:00;;;;;;;14.88;4.68;;;;;;;;;;5076902;28;20067;-30
2023/07/17 14:17:26;;;;;;;17.90;5.03;;;;;;;;;;5076855;28;20036;-29
2023/07/17 14:19:52;;;;;;;21.20;5.43;;;;;;;;;;5077096;28;20095;-30
2023/07/17 14:22:18;;;;;;;19.02;5.28;;;;;;;;;;5076676;28;20035;-31
2023/07/17 14:24:44;;;;;;;14.05;4.63;;;;;;;;;;5076759;28;20328;-32
2023/07/17 14:27:10;;;;;;;12.10;4.07;;;;;;;;;;5076822;28;20043;-32
2023/07/17 14:29:37;;;;;;;18.05;4.93;;;;;;;;;;5076918;28;20013;-32
2023/07/17 14:32:03;;;;;;;14.00;4.60;;;;;;;;;;5076713;28;20446;-33
2023/07/17 14:34:29;;;;;;;12.93;4.20;;;;;;;;;;5059021;28;20033;-33
2023/07/17 14:36:55;;;;;;;6.93;3.72;;;;;;;;;;5076537;28;20373;-31
2023/07/17 14:39:21;;;;;;;12.13;4.38;;;;;;;;;;5076389;28;20451;-27
2023/07/17 14:41:48;;;;;;;15.50;4.07;;;;;;;;;;5076622;28;20024;-30